Time;durP1;ratioP1;P1;durP2;ratioP2;P2;SDS_P1;SDS_P2;PMS_P1;PMS_P2;Temp;Humidity;BMP_temperature;BMP_pressure;BME280_temperature;BME280_humidity;BME280_pressure;Samples;Min_cycle;Max_cycle;Signal;HPM_P1;HPM_P2
2021/03/13 00:01:36;;;;;;;19.20;15.27;;;5.80;81.70;;;;;;5057453;28;20071;-74
2021/03/13 00:04:02;;;;;;;20.77;15.65;;;5.80;82.10;;;;;;5057352;28;20044;-74
2021/03/13 00:06:28;;;;;;;19.02;15.77;;;5.80;82.40;;;;;;5057327;28;20116;-74
2021/03/13 00:08:53;;;;;;;19.50;15.35;;;5.90;82.50;;;;;;5057272;28;20100;-73
2021/03/13 00:11:19;;;;;;;21.42;14.30;;;6.00;81.70;;;;;;5057535;28;20060;-73
2021/03/13 00:13:44;;;;;;;21.10;16.80;;;6.00;80.80;;;;;;5057081;28;20405;-74
2021/03/13 00:16:11;;;;;;;19.50;14.45;;;5.90;81.60;;;;;;5057155;28;20029;-74
2021/03/13 00:18:37;;;;;;;20.75;15.60;;;5.90;80.90;;;;;;5057163;28;20083;-73
2021/03/13 00:21:05;;;;;;;23.23;16.10;;;5.90;81.20;;;;;;5056928;28;20049;-74
2021/03/13 00:23:30;;;;;;;21.80;16.23;;;5.80;81.90;;;;;;5057228;28;20029;-74
2021/03/13 00:25:56;;;;;;;21.58;15.90;;;5.80;82.30;;;;;;5055944;28;20032;-74
2021/03/13 00:28:22;;;;;;;22.27;16.83;;;5.80;82.20;;;;;;5057008;28;20025;-74
2021/03/13 00:30:49;;;;;;;20.15;15.82;;;5.80;82.10;;;;;;5056965;28;20358;-74
2021/03/13 00:33:20;;;;;;;20.15;15.55;;;5.70;83.00;;;;;;5057103;28;20317;-74
2021/03/13 00:35:48;;;;;;;20.98;16.77;;;5.80;82.80;;;;;;5056824;28;20029;-71
2021/03/13 00:38:14;;;;;;;22.70;16.08;;;5.70;84.00;;;;;;5057144;28;20150;-71
2021/03/13 00:40:42;;;;;;;22.83;17.17;;;5.60;84.10;;;;;;5055775;28;20025;-74
2021/03/13 00:43:10;;;;;;;24.20;16.08;;;5.50;84.20;;;;;;5056620;28;20021;-73
2021/03/13 00:45:36;;;;;;;19.98;15.25;;;5.50;83.60;;;;;;5057121;28;20424;-74
2021/03/13 00:48:03;;;;;;;20.20;14.55;;;5.50;82.90;;;;;;5056983;28;20321;-73
2021/03/13 00:50:31;;;;;;;25.50;16.55;;;5.50;83.30;;;;;;5056576;28;20025;-74
2021/03/13 00:52:58;;;;;;;22.23;15.95;;;5.50;84.00;;;;;;5056628;28;20104;-74
2021/03/13 00:55:25;;;;;;;20.30;16.40;;;5.50;84.10;;;;;;5055457;28;20049;-73
2021/03/13 00:57:51;;;;;;;18.80;14.70;;;5.40;84.30;;;;;;5056624;28;20068;-74
2021/03/13 01:00:19;;;;;;;24.40;16.30;;;5.50;84.20;;;;;;5056567;28;20158;-73
2021/03/13 01:02:46;;;;;;;21.10;15.15;;;5.50;83.40;;;;;;5056779;28;20033;-73
2021/03/13 01:05:13;;;;;;;21.25;16.02;;;5.50;82.80;;;;;;5056736;28;20029;-74
2021/03/13 01:07:39;;;;;;;22.48;15.98;;;5.50;83.10;;;;;;5057190;28;20104;-74
2021/03/13 01:10:28;;;;;;;24.58;15.18;;;5.50;83.70;;;;;;5056777;28;20054;-74
2021/03/13 01:12:54;;;;;;;23.52;16.50;;;5.50;83.70;;;;;;5056634;28;20325;-73
2021/03/13 01:15:22;;;;;;;22.23;14.32;;;5.50;84.50;;;;;;5056214;28;20036;-73
2021/03/13 01:17:48;;;;;;;19.23;14.73;;;5.50;84.50;;;;;;5056671;28;20033;-73
2021/03/13 01:20:15;;;;;;;18.80;15.10;;;5.50;83.40;;;;;;5056158;28;20041;-73
2021/03/13 01:22:42;;;;;;;18.35;13.55;;;5.60;82.30;;;;;;5056310;28;20028;-74
2021/03/13 01:25:10;;;;;;;16.67;13.27;;;5.70;81.70;;;;;;5056315;28;20071;-74
2021/03/13 01:27:36;;;;;;;24.77;13.80;;;5.80;80.80;;;;;;5056610;28;20076;-73
2021/03/13 01:30:04;;;;;;;22.70;14.18;;;5.80;80.70;;;;;;5056331;28;20421;-73
2021/03/13 01:32:29;;;;;;;20.10;14.00;;;6.00;80.30;;;;;;5056271;28;20071;-74
2021/03/13 01:34:55;;;;;;;18.05;14.23;;;6.30;79.30;;;;;;5056398;28;20033;-73
2021/03/13 01:37:22;;;;;;;17.70;13.80;;;6.40;78.60;;;;;;5056209;28;20364;-73
2021/03/13 01:39:47;;;;;;;20.33;14.25;;;6.60;78.30;;;;;;5056202;28;20447;-74
2021/03/13 01:42:13;;;;;;;16.58;13.10;;;6.60;77.90;;;;;;5055142;28;20100;-74
2021/03/13 01:44:39;;;;;;;19.00;13.50;;;6.60;78.20;;;;;;5056107;28;20078;-74
2021/03/13 01:47:05;;;;;;;16.02;13.15;;;6.60;78.10;;;;;;5056460;28;20085;-74
2021/03/13 01:49:32;;;;;;;19.27;13.40;;;6.70;77.70;;;;;;5055112;28;20024;-74
2021/03/13 01:51:59;;;;;;;18.48;14.30;;;6.70;77.70;;;;;;5056029;28;20032;-73
2021/03/13 01:54:26;;;;;;;18.98;14.45;;;6.70;77.40;;;;;;5056797;28;20074;-74
2021/03/13 01:56:52;;;;;;;18.70;13.93;;;6.70;76.60;;;;;;5059841;28;20029;-73
2021/03/13 01:59:18;;;;;;;17.15;12.77;;;6.70;76.50;;;;;;5059761;28;20024;-73
2021/03/13 02:01:46;;;;;;;18.88;13.07;;;6.70;76.40;;;;;;5060027;28;20029;-74
2021/03/13 02:04:14;;;;;;;16.00;13.20;;;6.70;76.60;;;;;;5059636;28;20025;-74
2021/03/13 02:06:40;;;;;;;17.60;12.95;;;6.60;77.00;;;;;;5059673;28;20040;-74
2021/03/13 02:09:23;;;;;;;18.35;13.43;;;6.50;77.20;;;;;;5059584;28;20115;-74
2021/03/13 02:11:53;;;;;;;18.88;12.63;;;6.30;77.40;;;;;;5059777;28;20040;-73
2021/03/13 02:14:34;;;;;;;18.98;13.75;;;6.20;78.40;;;;;;5059301;28;20321;-74
2021/03/13 02:17:33;;;;;;;14.88;11.77;;;6.10;78.60;;;;;;5059912;28;20025;-74
2021/03/13 02:20:14;;;;;;;18.55;12.90;;;6.10;78.30;;;;;;5059700;28;20021;-74
2021/03/13 02:22:41;;;;;;;19.17;12.57;;;6.00;78.30;;;;;;5059341;28;20322;-74
2021/03/13 02:25:26;;;;;;;17.23;13.05;;;5.90;79.30;;;;;;5059160;28;20029;-74
2021/03/13 02:28:47;;;;;;;18.35;12.73;;;5.80;80.30;;;;;;5059490;28;20037;-73
2021/03/13 02:31:17;;;;;;;20.38;14.25;;;5.60;80.40;;;;;;5010724;28;20029;-73
2021/03/13 02:33:47;;;;;;;19.77;15.57;;;5.50;81.20;;;;;;5059081;28;20040;-74
2021/03/13 02:36:19;;;;;;;20.92;15.95;;;5.40;82.70;;;;;;5059377;28;20313;-73
2021/03/13 02:38:55;;;;;;;24.25;15.70;;;5.50;83.40;;;;;;5059073;28;20031;-73
2021/03/13 02:41:32;;;;;;;20.08;15.25;;;5.50;83.50;;;;;;5059006;28;20021;-74
2021/03/13 02:44:02;;;;;;;25.08;16.85;;;5.50;82.80;;;;;;5058863;28;20111;-74
2021/03/13 02:46:30;;;;;;;23.05;15.15;;;5.50;82.80;;;;;;5058958;28;20071;-74
2021/03/13 02:48:57;;;;;;;19.15;15.25;;;5.60;82.50;;;;;;5058878;28;20318;-73
2021/03/13 02:51:26;;;;;;;18.88;14.55;;;5.60;81.80;;;;;;5059072;28;20017;-74
2021/03/13 02:53:55;;;;;;;20.08;14.73;;;5.50;82.30;;;;;;5058612;28;20033;-74
2021/03/13 02:56:23;;;;;;;21.95;14.65;;;5.50;82.00;;;;;;5058774;28;20027;-74
2021/03/13 02:58:51;;;;;;;22.45;14.57;;;5.30;82.00;;;;;;5058705;28;20477;-73
2021/03/13 03:01:19;;;;;;;21.40;14.60;;;5.20;82.20;;;;;;5058610;28;20075;-74
2021/03/13 03:03:49;;;;;;;19.05;13.88;;;5.10;82.60;;;;;;5058506;28;20032;-73
2021/03/13 03:06:18;;;;;;;23.95;16.50;;;5.10;83.20;;;;;;5057474;28;20017;-74
2021/03/13 03:08:45;;;;;;;21.77;16.05;;;5.00;84.30;;;;;;5058725;28;20025;-73
2021/03/13 03:11:11;;;;;;;24.52;16.67;;;5.00;85.10;;;;;;5058388;28;20036;-74
2021/03/13 03:13:37;;;;;;;25.20;17.73;;;5.00;85.60;;;;;;5058229;28;20025;-73
2021/03/13 03:16:07;;;;;;;25.17;18.23;;;5.00;86.60;;;;;;5058876;28;20074;-73
2021/03/13 03:18:34;;;;;;;24.45;17.33;;;5.00;87.30;;;;;;5058371;28;20056;-73
2021/03/13 03:21:02;;;;;;;24.02;18.58;;;5.00;87.80;;;;;;5058007;28;20040;-74
2021/03/13 03:23:28;;;;;;;22.15;17.52;;;4.90;87.80;;;;;;5058255;28;20028;-73
2021/03/13 03:25:54;;;;;;;24.20;16.63;;;4.90;87.60;;;;;;5058423;28;20025;-74
2021/03/13 03:28:21;;;;;;;25.70;16.52;;;5.00;87.60;;;;;;5058092;28;20029;-73
2021/03/13 03:30:48;;;;;;;20.02;16.27;;;5.00;87.20;;;;;;5058063;28;20021;-73
2021/03/13 03:33:14;;;;;;;24.00;16.52;;;5.00;86.70;;;;;;5057956;28;20096;-74
2021/03/13 03:35:41;;;;;;;24.65;18.35;;;5.00;86.70;;;;;;5057925;28;20120;-73
2021/03/13 03:38:08;;;;;;;29.80;19.33;;;4.90;87.30;;;;;;5057941;28;20059;-74
2021/03/13 03:40:34;;;;;;;24.92;18.88;;;4.90;88.00;;;;;;5058191;28;20079;-73
2021/03/13 03:43:03;;;;;;;27.25;19.08;;;4.90;88.40;;;;;;5057825;28;20098;-74
2021/03/13 03:45:31;;;;;;;23.98;18.52;;;5.00;88.30;;;;;;5057683;28;20032;-74
2021/03/13 03:48:00;;;;;;;26.08;18.20;;;5.00;87.70;;;;;;5057910;28;20390;-73
2021/03/13 03:50:26;;;;;;;25.40;17.67;;;4.90;87.30;;;;;;5057661;28;20035;-74
2021/03/13 03:52:55;;;;;;;23.88;17.25;;;4.90;87.30;;;;;;5057899;28;20047;-74
2021/03/13 03:55:23;;;;;;;24.25;16.27;;;4.90;86.50;;;;;;5057496;28;20033;-74
2021/03/13 03:57:51;;;;;;;25.17;17.83;;;5.00;86.80;;;;;;5057610;28;20035;-74
2021/03/13 04:00:19;;;;;;;26.70;17.00;;;5.00;86.90;;;;;;5057685;28;20017;-73
2021/03/13 04:02:46;;;;;;;23.20;14.95;;;5.10;86.90;;;;;;5057467;28;20032;-73
2021/03/13 04:05:15;;;;;;;22.25;15.10;;;5.10;85.90;;;;;;5057365;28;20025;-74
2021/03/13 04:07:41;;;;;;;21.33;15.02;;;5.40;83.00;;;;;;5057349;28;20167;-74
2021/03/13 04:10:08;;;;;;;18.48;13.50;;;5.70;82.60;;;;;;5057589;28;20138;-74
2021/03/13 04:12:37;;;;;;;20.80;14.25;;;5.80;81.50;;;;;;5057327;28;20117;-73
2021/03/13 04:15:06;;;;;;;17.40;13.25;;;5.90;81.60;;;;;;5057421;28;20035;-74
2021/03/13 04:17:33;;;;;;;20.50;14.93;;;6.00;81.70;;;;;;5057092;28;20021;-74
2021/03/13 04:19:59;;;;;;;19.48;14.40;;;6.00;82.10;;;;;;5057474;28;20555;-74
2021/03/13 04:22:26;;;;;;;19.38;14.05;;;6.00;82.60;;;;;;5057432;28;20048;-74
2021/03/13 04:24:54;;;;;;;18.50;13.32;;;6.00;83.30;;;;;;5056971;28;20428;-73
2021/03/13 04:27:22;;;;;;;19.83;13.80;;;6.10;82.50;;;;;;5057297;28;20031;-73
2021/03/13 04:29:48;;;;;;;18.35;12.80;;;6.20;82.20;;;;;;5056981;28;20025;-73
2021/03/13 04:32:16;;;;;;;18.40;13.85;;;6.30;80.30;;;;;;5056987;28;20115;-74
2021/03/13 04:34:46;;;;;;;17.77;13.52;;;6.50;79.70;;;;;;5057045;28;20040;-73
2021/03/13 04:37:12;;;;;;;16.92;13.48;;;6.70;77.80;;;;;;5057189;28;20356;-74
2021/03/13 04:39:41;;;;;;;19.58;14.00;;;6.80;77.80;;;;;;5055782;28;20025;-74
2021/03/13 04:42:08;;;;;;;17.25;12.95;;;6.90;77.60;;;;;;5056741;28;20025;-74
2021/03/13 04:44:34;;;;;;;18.05;12.63;;;7.10;76.50;;;;;;5056638;28;20035;-74
2021/03/13 04:47:01;;;;;;;17.52;12.88;;;7.10;76.30;;;;;;5057003;28;20098;-74
2021/03/13 04:49:27;;;;;;;18.73;13.23;;;7.20;75.80;;;;;;5056977;28;20067;-73
2021/03/13 04:51:54;;;;;;;17.35;12.18;;;7.20;76.30;;;;;;5056675;28;20078;-74
2021/03/13 04:54:20;;;;;;;18.73;12.90;;;7.20;76.70;;;;;;5056753;28;20029;-73
2021/03/13 04:56:46;;;;;;;18.25;13.15;;;7.40;75.50;;;;;;5056936;28;20083;-73
2021/03/13 04:59:12;;;;;;;15.63;12.27;;;7.40;75.40;;;;;;5056866;28;20021;-73
2021/03/13 05:01:37;;;;;;;17.67;12.65;;;7.40;76.10;;;;;;5056567;28;20405;-73
2021/03/13 05:04:04;;;;;;;18.05;14.15;;;7.30;76.50;;;;;;5056449;28;20025;-74
2021/03/13 05:06:30;;;;;;;18.23;13.18;;;7.20;77.50;;;;;;5056629;28;20413;-74
2021/03/13 05:08:55;;;;;;;16.58;13.40;;;7.10;77.00;;;;;;5055449;28;20025;-74
2021/03/13 05:11:21;;;;;;;17.45;12.70;;;6.90;77.80;;;;;;5056467;28;20024;-73
2021/03/13 05:13:47;;;;;;;16.65;12.93;;;6.70;78.20;;;;;;5056280;28;20025;-73
2021/03/13 05:16:12;;;;;;;18.05;12.90;;;6.50;78.40;;;;;;5057008;28;20025;-73
2021/03/13 05:18:38;;;;;;;15.00;12.48;;;6.30;79.40;;;;;;5056659;28;20033;-74
2021/03/13 05:21:03;;;;;;;18.95;13.55;;;6.10;80.40;;;;;;5056224;28;20391;-74
2021/03/13 05:23:29;;;;;;;25.23;14.88;;;5.90;81.30;;;;;;5056299;28;20025;-74
2021/03/13 05:25:55;;;;;;;18.00;14.13;;;5.70;82.40;;;;;;5056622;28;20029;-73
2021/03/13 05:28:21;;;;;;;20.05;14.35;;;5.50;82.50;;;;;;5056554;28;20029;-73
2021/03/13 05:30:46;;;;;;;19.95;13.50;;;5.50;82.70;;;;;;5059650;28;20032;-73
2021/03/13 05:33:12;;;;;;;18.98;14.20;;;5.50;82.80;;;;;;5060316;28;20033;-74
2021/03/13 05:35:40;;;;;;;18.58;13.90;;;5.50;82.30;;;;;;5060467;28;20043;-73
2021/03/13 05:38:06;;;;;;;21.25;14.88;;;5.40;82.30;;;;;;5060189;28;20100;-73
2021/03/13 05:40:32;;;;;;;19.20;13.80;;;5.30;82.90;;;;;;5060454;28;20021;-73
2021/03/13 05:42:58;;;;;;;18.95;14.55;;;5.30;83.00;;;;;;5060174;28;20091;-73
2021/03/13 05:45:24;;;;;;;22.30;15.38;;;5.30;83.50;;;;;;5060298;28;20021;-73
2021/03/13 05:47:50;;;;;;;22.23;15.38;;;5.30;84.00;;;;;;5060325;28;20035;-74
2021/03/13 05:50:17;;;;;;;21.75;15.25;;;5.30;84.50;;;;;;5060246;28;20037;-73
2021/03/13 05:52:53;;;;;;;21.10;16.33;;;5.20;85.10;;;;;;5060199;28;20029;-74
2021/03/13 05:55:19;;;;;;;23.73;17.52;;;5.20;86.00;;;;;;5059811;28;20032;-74
2021/03/13 05:57:45;;;;;;;24.73;17.67;;;5.30;87.70;;;;;;5059925;28;20017;-74
2021/03/13 06:00:11;;;;;;;23.83;17.85;;;5.50;87.80;;;;;;5059805;28;20082;-73
2021/03/13 06:02:37;;;;;;;22.63;17.25;;;5.70;87.60;;;;;;5059629;28;20043;-74
2021/03/13 06:05:04;;;;;;;24.58;18.58;;;5.70;87.20;;;;;;5059734;28;20104;-73
2021/03/13 06:07:31;;;;;;;26.85;18.50;;;5.80;87.60;;;;;;5060076;28;20079;-74
2021/03/13 06:09:57;;;;;;;25.33;18.27;;;5.90;87.60;;;;;;5059822;28;20033;-73
2021/03/13 06:12:24;;;;;;;24.17;17.88;;;5.90;87.40;;;;;;5059575;28;20534;-73
2021/03/13 06:14:52;;;;;;;39.25;23.65;;;5.90;87.30;;;;;;5059257;28;20060;-73
2021/03/13 06:17:18;;;;;;;48.17;29.92;;;5.90;88.50;;;;;;5059759;28;20033;-74
2021/03/13 06:19:51;;;;;;;36.67;21.67;;;5.70;85.80;;;;;;5059708;28;20321;-73
2021/03/13 06:22:39;;;;;;;27.60;19.10;;;5.70;87.70;;;;;;5059623;28;20040;-73
2021/03/13 06:25:17;;;;;;;25.55;19.13;;;5.60;88.40;;;;;;5059294;28;20035;-74
2021/03/13 06:27:45;;;;;;;25.33;20.13;;;5.60;88.80;;;;;;5059231;28;20021;-73
2021/03/13 06:30:14;;;;;;;25.95;19.80;;;5.70;89.40;;;;;;5059531;28;20333;-73
2021/03/13 06:32:41;;;;;;;27.92;19.88;;;5.70;89.40;;;;;;5059497;28;20021;-73
2021/03/13 06:35:29;;;;;;;23.58;18.27;;;5.80;89.60;;;;;;5059007;28;20033;-73
2021/03/13 06:37:57;;;;;;;25.08;19.27;;;5.90;89.80;;;;;;5059378;28;20071;-73
2021/03/13 06:40:34;;;;;;;27.65;19.00;;;6.10;90.00;;;;;;5058863;28;20425;-74
2021/03/13 06:43:16;;;;;;;25.67;17.48;;;6.20;89.80;;;;;;5057940;28;20028;-74
2021/03/13 06:46:11;;;;;;;26.00;18.23;;;6.30;89.00;;;;;;5059334;28;20025;-73
2021/03/13 06:48:46;;;;;;;22.17;17.02;;;6.50;88.20;;;;;;5058923;28;20116;-74
2021/03/13 06:51:19;;;;;;;20.85;16.58;;;6.60;87.80;;;;;;5059112;28;20047;-73
2021/03/13 06:54:03;;;;;;;20.98;15.95;;;6.70;87.00;;;;;;5058908;28;20048;-73
2021/03/13 06:56:34;;;;;;;23.42;15.93;;;6.90;86.80;;;;;;5058686;28;20036;-73
2021/03/13 06:59:01;;;;;;;24.80;15.10;;;7.00;85.00;;;;;;5058701;28;20017;-73
2021/03/13 07:01:31;;;;;;;18.88;13.93;;;7.10;84.40;;;;;;5058649;28;20029;-74
2021/03/13 07:03:59;;;;;;;18.67;13.80;;;7.20;83.80;;;;;;5058781;28;20025;-73
2021/03/13 07:06:25;;;;;;;25.05;15.80;;;7.40;82.80;;;;;;5058832;28;20037;-74
2021/03/13 07:08:53;;;;;;;20.70;14.77;;;7.40;82.80;;;;;;5058485;28;20413;-74
2021/03/13 07:11:22;;;;;;;20.40;15.02;;;7.50;82.60;;;;;;5057375;28;20032;-74
2021/03/13 07:13:55;;;;;;;17.85;14.65;;;7.60;81.60;;;;;;5057236;28;20021;-74
2021/03/13 07:16:25;;;;;;;18.30;13.55;;;7.70;82.40;;;;;;5058715;28;20124;-74
2021/03/13 07:18:57;;;;;;;18.58;13.88;;;7.90;81.10;;;;;;5058394;28;20021;-74
2021/03/13 07:21:24;;;;;;;20.23;14.05;;;8.10;81.60;;;;;;5058220;28;20045;-73
2021/03/13 07:24:13;;;;;;;23.10;14.00;;;8.30;80.80;;;;;;5058424;28;20044;-74
2021/03/13 07:26:44;;;;;;;17.92;14.50;;;8.50;80.60;;;;;;5058221;28;20078;-74
2021/03/13 07:29:12;;;;;;;17.77;14.13;;;8.60;78.60;;;;;;5058171;28;20021;-74
2021/03/13 07:31:52;;;;;;;16.50;13.82;;;8.50;78.50;;;;;;5058357;28;20028;-73
2021/03/13 07:34:19;;;;;;;17.23;14.02;;;8.50;79.60;;;;;;5057926;28;20052;-74
2021/03/13 07:36:51;;;;;;;16.58;13.02;;;8.70;79.50;;;;;;5056926;28;20325;-74
2021/03/13 07:39:25;;;;;;;17.88;13.27;;;8.80;79.40;;;;;;5057938;28;20344;-74
2021/03/13 07:42:05;;;;;;;21.08;13.98;;;8.90;77.90;;;;;;5058066;28;20032;-74
2021/03/13 07:44:31;;;;;;;21.33;13.05;;;9.00;76.60;;;;;;5057777;28;20031;-74
2021/03/13 07:46:58;;;;;;;16.13;12.23;;;9.10;77.30;;;;;;5058077;28;20127;-74
2021/03/13 07:49:24;;;;;;;16.13;13.07;;;9.10;75.30;;;;;;5056684;28;20036;-74
2021/03/13 07:51:50;;;;;;;14.80;12.15;;;9.10;74.70;;;;;;5057091;28;20025;-74
2021/03/13 07:54:17;;;;;;;13.63;11.30;;;9.10;75.60;;;;;;5057389;28;20075;-74
2021/03/13 07:56:43;;;;;;;15.73;11.65;;;9.20;75.30;;;;;;5058006;28;20087;-74
2021/03/13 07:59:10;;;;;;;16.63;12.30;;;9.40;75.20;;;;;;5057524;28;20432;-74
2021/03/13 08:01:47;;;;;;;15.43;12.70;;;9.30;75.20;;;;;;5057529;28;20017;-74
2021/03/13 08:04:37;;;;;;;15.85;12.25;;;9.30;74.20;;;;;;5057369;28;20040;-74
2021/03/13 08:07:06;;;;;;;16.08;12.32;;;9.40;73.60;;;;;;5057676;28;20306;-74
2021/03/13 08:09:32;;;;;;;17.17;12.45;;;9.50;73.90;;;;;;5057296;28;20029;-74
2021/03/13 08:12:01;;;;;;;14.57;11.85;;;9.70;74.20;;;;;;5057378;28;20028;-74
2021/03/13 08:14:36;;;;;;;17.95;12.15;;;10.00;74.00;;;;;;5057206;28;20362;-74
2021/03/13 08:17:09;;;;;;;15.65;12.35;;;10.30;73.10;;;;;;5057552;28;20021;-74
2021/03/13 08:19:40;;;;;;;16.50;11.82;;;10.50;71.30;;;;;;5057491;28;20025;-74
2021/03/13 08:22:09;;;;;;;16.30;11.65;;;10.50;71.30;;;;;;5056234;28;20045;-74
2021/03/13 08:24:47;;;;;;;15.32;12.10;;;10.60;71.50;;;;;;5056339;28;20328;-74
2021/03/13 08:27:14;;;;;;;14.20;10.82;;;11.00;71.10;;;;;;5056552;28;20071;-74
2021/03/13 08:29:45;;;;;;;13.65;11.18;;;11.30;71.00;;;;;;5056431;28;20029;-74
2021/03/13 08:32:10;;;;;;;21.85;15.80;;;11.50;70.80;;;;;;5056122;28;20029;-74
2021/03/13 08:34:36;;;;;;;18.13;13.25;;;11.90;66.90;;;;;;5056003;28;20094;-74
2021/03/13 08:37:15;;;;;;;14.98;11.43;;;12.50;64.90;;;;;;5056097;28;20120;-74
2021/03/13 08:39:41;;;;;;;15.98;11.20;;;12.60;65.40;;;;;;5056134;28;20036;-74
2021/03/13 08:42:07;;;;;;;12.98;10.48;;;13.20;62.60;;;;;;5056203;28;20017;-74
2021/03/13 08:44:38;;;;;;;13.35;10.77;;;13.70;60.50;;;;;;5056164;28;20064;-74
2021/03/13 08:47:11;;;;;;;10.90;9.50;;;14.20;58.40;;;;;;5056280;28;20104;-74
2021/03/13 08:49:39;;;;;;;14.63;10.07;;;14.00;57.80;;;;;;5055923;28;20036;-74
2021/03/13 08:52:05;;;;;;;14.23;10.05;;;13.30;59.00;;;;;;5055946;28;20027;-74
2021/03/13 08:54:38;;;;;;;14.68;9.75;;;12.90;60.50;;;;;;5056010;28;20025;-74
2021/03/13 08:57:05;;;;;;;15.10;10.20;;;12.50;61.20;;;;;;5056051;28;20213;-74
2021/03/13 08:59:30;;;;;;;12.27;9.35;;;12.00;62.00;;;;;;5055814;28;20025;-74
2021/03/13 09:02:17;;;;;;;10.93;9.02;;;11.90;63.00;;;;;;5055777;28;20425;-74
2021/03/13 09:04:50;;;;;;;12.02;9.15;;;12.80;62.50;;;;;;5054463;28;20052;-74
2021/03/13 09:07:20;;;;;;;10.68;8.65;;;14.20;60.30;;;;;;5055986;28;20029;-74
2021/03/13 09:09:47;;;;;;;13.13;9.52;;;15.10;57.80;;;;;;5055888;28;20336;-74
2021/03/13 09:12:15;;;;;;;11.80;8.23;;;15.50;55.60;;;;;;5055935;28;20025;-74
2021/03/13 09:14:44;;;;;;;11.27;9.90;;;15.70;56.60;;;;;;5055646;28;20060;-74
2021/03/13 09:17:12;;;;;;;11.57;8.95;;;15.90;55.10;;;;;;5055587;28;20413;-72
2021/03/13 09:19:40;;;;;;;11.13;8.70;;;16.50;55.30;;;;;;5054526;28;20083;-72
2021/03/13 09:22:09;;;;;;;11.10;8.45;;;17.00;54.20;;;;;;5029707;28;758171;-74
2021/03/13 09:24:37;;;;;;;10.95;8.70;;;17.10;53.10;;;;;;5056457;28;20033;-74
2021/03/13 09:27:04;;;;;;;12.63;8.98;;;17.00;53.20;;;;;;5056682;28;20439;-74
2021/03/13 09:29:41;;;;;;;10.13;7.78;;;16.80;52.20;;;;;;5056327;28;20048;-74
2021/03/13 09:32:17;;;;;;;11.02;8.15;;;16.90;53.40;;;;;;5056840;28;20380;-72
2021/03/13 09:34:45;;;;;;;9.00;8.10;;;17.20;51.20;;;;;;5056622;28;20028;-73
2021/03/13 09:37:24;;;;;;;14.07;8.07;;;17.10;52.20;;;;;;5056291;28;20025;-72
2021/03/13 09:39:52;;;;;;;9.93;7.95;;;17.00;51.70;;;;;;5056195;28;20324;-74
2021/03/13 09:42:18;;;;;;;9.40;7.35;;;17.40;51.40;;;;;;5056460;28;20316;-73
2021/03/13 09:44:52;;;;;;;11.45;7.60;;;17.80;51.60;;;;;;5056430;28;20029;-72
2021/03/13 09:47:34;;;;;;;11.55;8.30;;;17.90;49.70;;;;;;5056403;28;20091;-73
2021/03/13 09:50:06;;;;;;;8.30;7.18;;;18.10;49.30;;;;;;5056441;28;20017;-73
2021/03/13 09:52:34;;;;;;;10.02;7.65;;;17.40;50.10;;;;;;5056193;28;20096;-72
2021/03/13 09:55:17;;;;;;;8.88;7.20;;;16.90;51.50;;;;;;5056199;28;20048;-72
2021/03/13 09:57:45;;;;;;;9.77;8.00;;;16.80;52.70;;;;;;5056139;28;20017;-72
2021/03/13 10:00:16;;;;;;;10.43;8.35;;;16.70;52.10;;;;;;5056039;28;20064;-74
2021/03/13 10:02:42;;;;;;;9.75;8.20;;;16.40;52.90;;;;;;5056425;28;20049;-74
2021/03/13 10:05:11;;;;;;;10.75;8.80;;;16.60;54.40;;;;;;5056046;28;20313;-72
2021/03/13 10:07:41;;;;;;;11.15;8.00;;;17.20;52.00;;;;;;5056418;28;20028;-74
2021/03/13 10:10:09;;;;;;;8.68;7.78;;;17.40;53.00;;;;;;5056025;28;20087;-74
2021/03/13 10:12:41;;;;;;;11.82;8.55;;;17.80;52.60;;;;;;5048532;28;20433;-74
2021/03/13 10:15:20;;;;;;;10.77;8.70;;;18.20;52.70;;;;;;5048409;28;20036;-74
2021/03/13 10:17:58;;;;;;;11.57;9.13;;;18.30;53.50;;;;;;5039577;28;20041;-73
2021/03/13 10:20:50;;;;;;;17.38;8.80;;;18.40;49.30;;;;;;5039223;28;20045;-72
2021/03/13 10:23:32;;;;;;;9.02;8.00;;;18.40;49.80;;;;;;5038791;28;20112;-74
2021/03/13 10:25:58;;;;;;;11.43;9.23;;;18.40;49.70;;;;;;5039720;28;20417;-74
2021/03/13 10:28:27;;;;;;;11.55;8.50;;;18.30;51.30;;;;;;5039339;28;20025;-73
2021/03/13 10:31:23;;;;;;;9.57;8.57;;;18.40;51.80;;;;;;5039344;28;20053;-74
2021/03/13 10:33:50;;;;;;;12.23;8.85;;;18.70;49.00;;;;;;5038464;28;20341;-72
2021/03/13 10:36:18;;;;;;;11.90;8.95;;;18.70;49.60;;;;;;5038176;28;20030;-74
2021/03/13 10:38:45;;;;;;;11.02;8.65;;;18.50;50.60;;;;;;5039346;28;20091;-74
2021/03/13 10:41:16;;;;;;;12.07;8.65;;;18.70;49.80;;;;;;5039104;28;20017;-74
2021/03/13 10:43:44;;;;;;;9.80;8.80;;;19.10;49.40;;;;;;5039103;28;20079;-74
2021/03/13 10:46:10;;;;;;;10.02;7.90;;;19.20;49.90;;;;;;5039558;28;20175;-74
2021/03/13 10:49:00;;;;;;;9.00;7.60;;;19.20;48.70;;;;;;5038988;28;20042;-73
2021/03/13 10:51:32;;;;;;;9.32;8.00;;;18.20;50.80;;;;;;5038356;28;20342;-74
2021/03/13 10:54:03;;;;;;;9.30;8.15;;;17.50;51.90;;;;;;5038718;28;20330;-74
2021/03/13 10:56:39;;;;;;;9.90;7.97;;;17.50;50.90;;;;;;5038841;28;20322;-74
2021/03/13 10:59:05;;;;;;;8.77;7.63;;;18.20;51.30;;;;;;5038793;28;20442;-73
2021/03/13 11:01:31;;;;;;;9.05;6.70;;;18.80;49.00;;;;;;5037731;28;20021;-74
2021/03/13 11:03:58;;;;;;;11.05;7.90;;;19.00;50.00;;;;;;5038629;28;20021;-73
2021/03/13 11:06:34;;;;;;;8.52;7.63;;;19.00;49.00;;;;;;5037638;28;20080;-74
2021/03/13 11:09:02;;;;;;;9.80;7.53;;;18.80;48.50;;;;;;5038579;28;20036;-74
2021/03/13 11:11:28;;;;;;;9.77;7.57;;;18.80;48.20;;;;;;5038573;28;20032;-74
2021/03/13 11:13:55;;;;;;;10.25;7.07;;;19.20;49.30;;;;;;5038276;28;20294;-73
2021/03/13 11:16:22;;;;;;;8.88;6.72;;;19.60;49.40;;;;;;5038548;28;20321;-74
2021/03/13 11:18:54;;;;;;;9.13;7.45;;;19.80;48.80;;;;;;5038415;28;20017;-74
2021/03/13 11:21:23;;;;;;;9.75;6.65;;;19.60;47.10;;;;;;5038275;28;20038;-72
2021/03/13 11:23:50;;;;;;;7.13;6.32;;;18.70;48.70;;;;;;5038299;28;20100;-73
2021/03/13 11:26:17;;;;;;;8.38;6.38;;;17.60;51.60;;;;;;5038013;28;20320;-74
2021/03/13 11:28:43;;;;;;;9.05;7.32;;;16.70;52.80;;;;;;5037564;28;20021;-73
2021/03/13 11:31:10;;;;;;;10.98;7.40;;;15.70;54.50;;;;;;5038208;28;20055;-73
2021/03/13 11:33:37;;;;;;;7.65;6.50;;;14.50;56.60;;;;;;5038119;28;20373;-73
2021/03/13 11:36:03;;;;;;;10.82;6.90;;;14.10;57.70;;;;;;5038067;28;20087;-73
2021/03/13 11:38:31;;;;;;;7.85;6.53;;;13.70;58.40;;;;;;5037247;28;20358;-73
2021/03/13 11:40:57;;;;;;;9.73;6.95;;;14.10;61.00;;;;;;5038021;28;20077;-74
2021/03/13 11:43:23;;;;;;;9.23;6.68;;;14.60;57.90;;;;;;5037879;28;20372;-73
2021/03/13 11:45:48;;;;;;;8.75;6.45;;;14.40;56.50;;;;;;5038322;28;20029;-73
2021/03/13 11:48:16;;;;;;;13.10;6.85;;;14.50;57.20;;;;;;5037747;28;20029;-73
2021/03/13 11:50:42;;;;;;;12.05;7.88;;;15.00;58.10;;;;;;5037797;28;20487;-74
2021/03/13 11:53:08;;;;;;;8.35;7.28;;;15.40;56.10;;;;;;5037608;28;20033;-73
2021/03/13 11:55:34;;;;;;;10.20;7.40;;;15.00;56.00;;;;;;5037700;28;20083;-73
2021/03/13 11:57:59;;;;;;;10.38;7.88;;;14.40;57.10;;;;;;5037652;28;20028;-73
2021/03/13 12:00:25;;;;;;;11.13;7.28;;;14.10;59.50;;;;;;5037740;28;20024;-73
2021/03/13 12:02:51;;;;;;;8.32;7.32;;;14.40;59.80;;;;;;5037863;28;20030;-73
2021/03/13 12:05:17;;;;;;;9.95;6.95;;;14.30;58.80;;;;;;5036454;28;20416;-73
2021/03/13 12:07:42;;;;;;;9.13;6.95;;;14.30;59.00;;;;;;5037758;28;20433;-73
2021/03/13 12:10:09;;;;;;;12.70;6.90;;;14.00;59.20;;;;;;5037458;28;20036;-73
2021/03/13 12:12:36;;;;;;;7.70;6.25;;;14.20;58.00;;;;;;5036320;28;20029;-73
2021/03/13 12:15:06;;;;;;;7.57;5.88;;;14.40;58.50;;;;;;5037091;28;20136;-73
2021/03/13 12:17:32;;;;;;;8.23;5.80;;;14.20;58.90;;;;;;5037772;28;20029;-73
2021/03/13 12:19:58;;;;;;;7.32;6.25;;;13.80;59.80;;;;;;5037105;28;20021;-73
2021/03/13 12:22:26;;;;;;;8.32;6.38;;;13.30;60.30;;;;;;5037281;28;20035;-73
2021/03/13 12:24:52;;;;;;;9.00;6.40;;;13.10;60.70;;;;;;5037129;28;20021;-73
2021/03/13 12:27:18;;;;;;;10.10;6.35;;;12.90;61.20;;;;;;5037347;28;20034;-73
2021/03/13 12:29:44;;;;;;;8.65;6.20;;;12.60;61.40;;;;;;5037553;28;20321;-73
2021/03/13 12:32:10;;;;;;;15.07;7.85;;;12.50;62.90;;;;;;5037014;28;20121;-73
2021/03/13 12:34:37;;;;;;;8.88;7.07;;;12.40;63.00;;;;;;5036863;28;20029;-73
2021/03/13 12:37:02;;;;;;;9.18;6.60;;;12.40;62.60;;;;;;5035943;28;20377;-73
2021/03/13 12:39:28;;;;;;;10.15;7.00;;;12.40;63.10;;;;;;5036745;28;20104;-73
2021/03/13 12:41:54;;;;;;;9.68;7.43;;;12.40;62.90;;;;;;5035907;28;20378;-73
2021/03/13 12:44:20;;;;;;;10.18;7.03;;;12.30;63.00;;;;;;5036846;28;20083;-73
2021/03/13 12:46:45;;;;;;;7.57;6.63;;;12.40;63.70;;;;;;5036955;28;20156;-73
2021/03/13 12:49:11;;;;;;;10.90;7.53;;;12.50;63.80;;;;;;5036834;28;20429;-73